Pell Lake, Wisconsin
Current Conditions -  °F | °C
As of 12:55 PM on Friday 26 Dec 2014 (Local Time) from KBUU Reporting Station
Clear Clear  
Wind Chill: 39°   Ceiling: Unl
Heat Index: 45°   Visibility: 10mi
Dew Point: 36°   Wind: 12mph
Humidity: 70%   Direction: 210°SSW
Pressure: 29.96"   Gusts: NA
Location:  42.54°N, 88.37°W
Report Text: KBUU 261855Z AUTO 21010KT 10SM CLR 07/02 A2996 RMK AO2 T00720021
Loading
Personal Weather Stations






























Interactive Weather Map New forecast layout! Learn more

10-Day Weather Forecast

Advertisements
Track Severe Weather on mobile